sensor_id;sensor_type;location;lat;lon;timestamp;pressure;altitude;pressure_sealevel;temperature;humidity
5298;BME280;14738;42.668;23.250;2024-01-27T00:01:35;48557.06;;;-141.90;51.98
5298;BME280;14738;42.668;23.250;2024-01-27T00:04:01;48584.84;;;-141.90;51.89
5298;BME280;14738;42.668;23.250;2024-01-27T00:06:26;48584.84;;;-141.90;51.72
5298;BME280;14738;42.668;23.250;2024-01-27T00:08:52;48604.72;;;-141.90;51.78
5298;BME280;14738;42.668;23.250;2024-01-27T00:11:17;48588.84;;;-141.90;51.85
5298;BME280;14738;42.668;23.250;2024-01-27T00:13:44;48592.81;;;-141.90;51.52
5298;BME280;14738;42.668;23.250;2024-01-27T00:16:09;48580.88;;;-141.90;51.54
5298;BME280;14738;42.668;23.250;2024-01-27T00:18:38;48580.88;;;-141.90;51.39
5298;BME280;14738;42.668;23.250;2024-01-27T00:21:05;48557.06;;;-141.90;51.06
5298;BME280;14738;42.668;23.250;2024-01-27T00:23:31;48584.84;;;-141.90;50.08
5298;BME280;14738;42.668;23.250;2024-01-27T00:25:57;48576.91;;;-141.90;50.06
5298;BME280;14738;42.668;23.250;2024-01-27T00:28:23;48557.06;;;-141.90;49.54
5298;BME280;14738;42.668;23.250;2024-01-27T00:30:48;48541.19;;;-141.90;49.46
5298;BME280;14738;42.668;23.250;2024-01-27T00:33:15;48567.00;;;-141.90;49.15
5298;BME280;14738;42.668;23.250;2024-01-27T00:35:40;48592.81;;;-141.90;48.99
5298;BME280;14738;42.668;23.250;2024-01-27T00:38:06;48608.69;;;-141.90;48.75
5298;BME280;14738;42.668;23.250;2024-01-27T00:40:31;48572.94;;;-141.90;48.92
5298;BME280;14738;42.668;23.250;2024-01-27T00:42:57;48608.69;;;-141.90;48.80
5298;BME280;14738;42.668;23.250;2024-01-27T00:45:22;48592.81;;;-141.90;48.96
5298;BME280;14738;42.668;23.250;2024-01-27T00:47:49;48553.09;;;-141.90;48.63
5298;BME280;14738;42.668;23.250;2024-01-27T00:50:15;48561.03;;;-141.90;48.82
5298;BME280;14738;42.668;23.250;2024-01-27T00:52:41;48543.16;;;-141.90;48.76
5298;BME280;14738;42.668;23.250;2024-01-27T00:55:07;48576.91;;;-141.90;49.25
5298;BME280;14738;42.668;23.250;2024-01-27T00:57:32;48578.91;;;-141.90;49.63
5298;BME280;14738;42.668;23.250;2024-01-27T00:59:57;48590.81;;;-141.90;49.17
5298;BME280;14738;42.668;23.250;2024-01-27T01:02:23;48561.03;;;-141.90;49.37
5298;BME280;14738;42.668;23.250;2024-01-27T01:04:49;48572.94;;;-141.90;49.25
5298;BME280;14738;42.668;23.250;2024-01-27T01:07:14;48557.06;;;-141.90;49.63
5298;BME280;14738;42.668;23.250;2024-01-27T01:09:39;48553.09;;;-141.90;49.36
5298;BME280;14738;42.668;23.250;2024-01-27T01:12:05;48557.06;;;-141.90;49.00
5298;BME280;14738;42.668;23.250;2024-01-27T01:14:30;48592.81;;;-141.90;49.07
5298;BME280;14738;42.668;23.250;2024-01-27T01:16:56;48541.19;;;-141.90;48.64
5298;BME280;14738;42.668;23.250;2024-01-27T01:19:21;48549.13;;;-141.90;48.03
5298;BME280;14738;42.668;23.250;2024-01-27T01:21:46;48576.91;;;-141.90;47.62
5298;BME280;14738;42.668;23.250;2024-01-27T01:24:12;48557.06;;;-141.90;46.96
5298;BME280;14738;42.668;23.250;2024-01-27T01:26:37;48539.19;;;-141.90;46.25
5298;BME280;14738;42.668;23.250;2024-01-27T01:29:03;48561.03;;;-141.90;45.76
5298;BME280;14738;42.668;23.250;2024-01-27T01:31:28;48570.97;;;-141.90;45.42
5298;BME280;14738;42.668;23.250;2024-01-27T01:33:53;48572.94;;;-141.90;45.63
5298;BME280;14738;42.668;23.250;2024-01-27T01:36:19;48559.06;;;-141.90;44.90
5298;BME280;14738;42.668;23.250;2024-01-27T01:38:44;48537.22;;;-141.90;44.38
5298;BME280;14738;42.668;23.250;2024-01-27T01:41:11;48535.22;;;-141.90;43.73
5298;BME280;14738;42.668;23.250;2024-01-27T01:43:36;48545.16;;;-141.90;43.85
5298;BME280;14738;42.668;23.250;2024-01-27T01:46:02;48565.00;;;-141.90;43.87
5298;BME280;14738;42.668;23.250;2024-01-27T01:48:28;48529.28;;;-141.90;43.95
5298;BME280;14738;42.668;23.250;2024-01-27T01:50:54;48533.25;;;-141.90;44.49
5298;BME280;14738;42.668;23.250;2024-01-27T01:53:20;48563.03;;;-141.90;45.93
5298;BME280;14738;42.668;23.250;2024-01-27T01:55:46;48525.31;;;-141.90;45.84
5298;BME280;14738;42.668;23.250;2024-01-27T01:58:11;48557.06;;;-141.90;45.58
5298;BME280;14738;42.668;23.250;2024-01-27T02:00:37;48529.28;;;-141.90;46.20
5298;BME280;14738;42.668;23.250;2024-01-27T02:03:02;48559.06;;;-141.90;46.64
5298;BME280;14738;42.668;23.250;2024-01-27T02:05:28;48539.19;;;-141.90;46.94
5298;BME280;14738;42.668;23.250;2024-01-27T02:07:53;48509.41;;;-141.90;45.17
5298;BME280;14738;42.668;23.250;2024-01-27T02:10:21;48537.22;;;-141.90;45.23
5298;BME280;14738;42.668;23.250;2024-01-27T02:12:47;48517.34;;;-141.90;44.79
5298;BME280;14738;42.668;23.250;2024-01-27T02:15:13;48576.91;;;-141.90;45.22
5298;BME280;14738;42.668;23.250;2024-01-27T02:17:39;48545.16;;;-141.90;44.22
5298;BME280;14738;42.668;23.250;2024-01-27T02:20:06;48549.13;;;-141.90;43.03
5298;BME280;14738;42.668;23.250;2024-01-27T02:22:35;48580.88;;;-141.90;43.43
5298;BME280;14738;42.668;23.250;2024-01-27T02:25:02;48539.19;;;-141.90;44.23
5298;BME280;14738;42.668;23.250;2024-01-27T02:27:27;48533.25;;;-141.90;43.65
5298;BME280;14738;42.668;23.250;2024-01-27T02:29:53;48545.16;;;-141.90;43.10
5298;BME280;14738;42.668;23.250;2024-01-27T02:34:43;48557.06;;;-141.90;43.73
5298;BME280;14738;42.668;23.250;2024-01-27T02:37:09;48543.16;;;-141.90;42.93
5298;BME280;14738;42.668;23.250;2024-01-27T02:39:37;48527.28;;;-141.90;43.51
5298;BME280;14738;42.668;23.250;2024-01-27T02:42:02;48525.31;;;-141.90;42.80
5298;BME280;14738;42.668;23.250;2024-01-27T02:44:28;48523.31;;;-141.90;42.78
5298;BME280;14738;42.668;23.250;2024-01-27T02:46:53;48537.22;;;-141.90;40.66
5298;BME280;14738;42.668;23.250;2024-01-27T02:49:18;48519.34;;;-141.90;41.62
5298;BME280;14738;42.668;23.250;2024-01-27T02:51:44;48537.22;;;-141.90;41.99
5298;BME280;14738;42.668;23.250;2024-01-27T02:54:09;48521.34;;;-141.90;41.44
5298;BME280;14738;42.668;23.250;2024-01-27T02:56:35;48521.34;;;-141.90;41.65
5298;BME280;14738;42.668;23.250;2024-01-27T02:59:00;48533.25;;;-141.90;41.69
5298;BME280;14738;42.668;23.250;2024-01-27T03:01:25;48545.16;;;-141.90;41.53
5298;BME280;14738;42.668;23.250;2024-01-27T03:03:51;48521.34;;;-141.90;41.80
5298;BME280;14738;42.668;23.250;2024-01-27T03:06:16;48525.31;;;-141.90;42.31
5298;BME280;14738;42.668;23.250;2024-01-27T03:08:42;48517.34;;;-141.90;42.64
5298;BME280;14738;42.668;23.250;2024-01-27T03:11:07;48545.16;;;-141.90;43.10
5298;BME280;14738;42.668;23.250;2024-01-27T03:13:32;48537.22;;;-141.90;43.97
5298;BME280;14738;42.668;23.250;2024-01-27T03:15:58;48513.38;;;-141.90;44.54
5298;BME280;14738;42.668;23.250;2024-01-27T03:18:23;48527.28;;;-141.90;44.31
5298;BME280;14738;42.668;23.250;2024-01-27T03:20:50;48513.38;;;-141.90;45.03
5298;BME280;14738;42.668;23.250;2024-01-27T03:23:15;48549.13;;;-141.90;45.36
5298;BME280;14738;42.668;23.250;2024-01-27T03:25:41;48513.38;;;-141.90;46.97
5298;BME280;14738;42.668;23.250;2024-01-27T03:28:06;48539.19;;;-141.90;48.79
5298;BME280;14738;42.668;23.250;2024-01-27T03:30:32;48537.22;;;-141.90;48.40
5298;BME280;14738;42.668;23.250;2024-01-27T03:32:57;48541.19;;;-141.90;48.30
5298;BME280;14738;42.668;23.250;2024-01-27T03:35:22;48559.06;;;-141.90;48.23
5298;BME280;14738;42.668;23.250;2024-01-27T03:37:48;48525.31;;;-141.90;49.00
5298;BME280;14738;42.668;23.250;2024-01-27T03:40:14;48557.06;;;-141.90;49.88
5298;BME280;14738;42.668;23.250;2024-01-27T03:42:43;48545.16;;;-141.90;50.57
5298;BME280;14738;42.668;23.250;2024-01-27T03:45:08;48557.06;;;-141.90;51.40
5298;BME280;14738;42.668;23.250;2024-01-27T03:47:34;48565.00;;;-141.90;50.95
5298;BME280;14738;42.668;23.250;2024-01-27T03:49:59;48549.13;;;-141.90;50.86
5298;BME280;14738;42.668;23.250;2024-01-27T03:52:24;48529.28;;;-141.90;51.60
5298;BME280;14738;42.668;23.250;2024-01-27T03:54:50;48557.06;;;-141.90;52.19
5298;BME280;14738;42.668;23.250;2024-01-27T03:57:15;48580.88;;;-141.90;53.31
5298;BME280;14738;42.668;23.250;2024-01-27T03:59:41;48570.97;;;-141.90;53.64
5298;BME280;14738;42.668;23.250;2024-01-27T04:02:06;48527.28;;;-141.90;54.11
5298;BME280;14738;42.668;23.250;2024-01-27T04:04:32;48541.19;;;-141.90;55.48
5298;BME280;14738;42.668;23.250;2024-01-27T04:06:57;48572.94;;;-141.90;56.12
5298;BME280;14738;42.668;23.250;2024-01-27T04:09:23;48580.88;;;-141.90;57.00
5298;BME280;14738;42.668;23.250;2024-01-27T04:11:50;48572.94;;;-141.90;57.56
5298;BME280;14738;42.668;23.250;2024-01-27T04:14:16;48533.25;;;-141.90;58.74
5298;BME280;14738;42.668;23.250;2024-01-27T04:16:41;48596.78;;;-141.90;58.66
5298;BME280;14738;42.668;23.250;2024-01-27T04:19:06;48572.94;;;-141.90;59.45
5298;BME280;14738;42.668;23.250;2024-01-27T04:21:32;48576.91;;;-141.90;60.05
5298;BME280;14738;42.668;23.250;2024-01-27T04:23:57;48557.06;;;-141.90;60.64
5298;BME280;14738;42.668;23.250;2024-01-27T04:26:22;48565.00;;;-141.90;60.66
5298;BME280;14738;42.668;23.250;2024-01-27T04:28:48;48565.00;;;-141.90;60.68
5298;BME280;14738;42.668;23.250;2024-01-27T04:31:13;48567.00;;;-141.90;60.59
5298;BME280;14738;42.668;23.250;2024-01-27T04:33:39;48570.97;;;-141.90;60.49
5298;BME280;14738;42.668;23.250;2024-01-27T04:36:04;48588.84;;;-141.90;59.98
5298;BME280;14738;42.668;23.250;2024-01-27T04:38:32;48592.81;;;-141.90;60.51
5298;BME280;14738;42.668;23.250;2024-01-27T04:40:59;48541.19;;;-141.90;60.05
5298;BME280;14738;42.668;23.250;2024-01-27T04:43:24;48553.09;;;-141.90;60.20
5298;BME280;14738;42.668;23.250;2024-01-27T04:45:49;48557.06;;;-141.90;61.26
5298;BME280;14738;42.668;23.250;2024-01-27T04:48:15;48576.91;;;-141.90;60.86
5298;BME280;14738;42.668;23.250;2024-01-27T04:50:41;48557.06;;;-141.90;61.87
5298;BME280;14738;42.668;23.250;2024-01-27T04:53:06;48574.94;;;-141.90;62.85
5298;BME280;14738;42.668;23.250;2024-01-27T04:55:32;48572.94;;;-141.90;63.20
5298;BME280;14738;42.668;23.250;2024-01-27T04:57:57;48557.06;;;-141.90;62.96
5298;BME280;14738;42.668;23.250;2024-01-27T05:00:24;48557.06;;;-141.90;63.27
5298;BME280;14738;42.668;23.250;2024-01-27T05:02:51;48553.09;;;-141.90;63.81
5298;BME280;14738;42.668;23.250;2024-01-27T05:05:17;48549.13;;;-141.90;63.81
5298;BME280;14738;42.668;23.250;2024-01-27T05:07:42;48545.16;;;-141.90;63.59
5298;BME280;14738;42.668;23.250;2024-01-27T05:10:10;48525.31;;;-141.90;64.02
5298;BME280;14738;42.668;23.250;2024-01-27T05:12:37;48567.00;;;-141.90;64.03
5298;BME280;14738;42.668;23.250;2024-01-27T05:15:02;48531.25;;;-141.90;64.33
5298;BME280;14738;42.668;23.250;2024-01-27T05:17:28;48549.13;;;-141.90;64.92
5298;BME280;14738;42.668;23.250;2024-01-27T05:19:53;48557.06;;;-141.90;65.61
5298;BME280;14738;42.668;23.250;2024-01-27T05:22:18;48580.88;;;-141.90;66.01
5298;BME280;14738;42.668;23.250;2024-01-27T05:24:44;48541.19;;;-141.90;65.85
5298;BME280;14738;42.668;23.250;2024-01-27T05:27:09;48541.19;;;-141.90;66.17
5298;BME280;14738;42.668;23.250;2024-01-27T05:29:37;48561.03;;;-141.90;66.56
5298;BME280;14738;42.668;23.250;2024-01-27T05:32:02;48557.06;;;-141.90;66.58
5298;BME280;14738;42.668;23.250;2024-01-27T05:34:28;48557.06;;;-141.90;66.32
5298;BME280;14738;42.668;23.250;2024-01-27T05:36:53;48545.16;;;-141.90;66.84
5298;BME280;14738;42.668;23.250;2024-01-27T05:39:19;48572.94;;;-141.90;67.48
5298;BME280;14738;42.668;23.250;2024-01-27T05:41:45;48553.09;;;-141.90;67.74
5298;BME280;14738;42.668;23.250;2024-01-27T05:44:11;48568.97;;;-141.90;67.28
5298;BME280;14738;42.668;23.250;2024-01-27T05:46:36;48537.22;;;-141.90;67.38
5298;BME280;14738;42.668;23.250;2024-01-27T05:49:02;48537.22;;;-141.90;67.30
5298;BME280;14738;42.668;23.250;2024-01-27T05:51:29;48561.03;;;-141.90;66.93
5298;BME280;14738;42.668;23.250;2024-01-27T05:53:55;48559.06;;;-141.90;65.83
5298;BME280;14738;42.668;23.250;2024-01-27T05:56:21;48537.22;;;-141.90;65.81
5298;BME280;14738;42.668;23.250;2024-01-27T05:58:47;48565.00;;;-141.90;65.64
5298;BME280;14738;42.668;23.250;2024-01-27T06:01:12;48553.09;;;-141.90;65.98
5298;BME280;14738;42.668;23.250;2024-01-27T06:03:38;48559.06;;;-141.90;66.64
5298;BME280;14738;42.668;23.250;2024-01-27T06:06:06;48561.03;;;-141.90;66.73
5298;BME280;14738;42.668;23.250;2024-01-27T06:08:31;48553.09;;;-141.90;66.18
5298;BME280;14738;42.668;23.250;2024-01-27T06:10:56;48549.13;;;-141.90;65.85
5298;BME280;14738;42.668;23.250;2024-01-27T06:13:22;48553.09;;;-141.90;66.06
5298;BME280;14738;42.668;23.250;2024-01-27T06:15:47;48559.06;;;-141.90;65.69
5298;BME280;14738;42.668;23.250;2024-01-27T06:18:12;48559.06;;;-141.90;65.11
5298;BME280;14738;42.668;23.250;2024-01-27T06:20:38;48541.19;;;-141.90;64.32
5298;BME280;14738;42.668;23.250;2024-01-27T06:23:05;48549.13;;;-141.90;63.97
5298;BME280;14738;42.668;23.250;2024-01-27T06:25:31;48537.22;;;-141.90;63.98
5298;BME280;14738;42.668;23.250;2024-01-27T06:27:56;48553.09;;;-141.90;63.86
5298;BME280;14738;42.668;23.250;2024-01-27T06:30:22;48557.06;;;-141.90;63.44
5298;BME280;14738;42.668;23.250;2024-01-27T06:32:48;48547.13;;;-141.90;63.13
5298;BME280;14738;42.668;23.250;2024-01-27T06:35:13;48529.28;;;-141.90;62.77
5298;BME280;14738;42.668;23.250;2024-01-27T06:37:39;48553.09;;;-141.90;62.90
5298;BME280;14738;42.668;23.250;2024-01-27T06:53:11;48549.13;;;-141.90;61.10
5298;BME280;14738;42.668;23.250;2024-01-27T06:55:36;48529.28;;;-141.90;60.34
5298;BME280;14738;42.668;23.250;2024-01-27T06:58:02;48489.56;;;-141.90;60.19
5298;BME280;14738;42.668;23.250;2024-01-27T07:00:27;48557.06;;;-141.90;59.81
5298;BME280;14738;42.668;23.250;2024-01-27T07:02:53;48509.41;;;-141.90;60.19
5298;BME280;14738;42.668;23.250;2024-01-27T07:05:19;48529.28;;;-141.90;59.75
5298;BME280;14738;42.668;23.250;2024-01-27T07:07:46;48553.09;;;-141.90;58.91
5298;BME280;14738;42.668;23.250;2024-01-27T07:10:11;48541.19;;;-141.90;58.15
5298;BME280;14738;42.668;23.250;2024-01-27T07:12:37;48521.34;;;-141.90;58.01
5298;BME280;14738;42.668;23.250;2024-01-27T07:15:02;48521.34;;;-141.90;58.15
5298;BME280;14738;42.668;23.250;2024-01-27T07:17:28;48545.16;;;-141.90;58.51
5298;BME280;14738;42.668;23.250;2024-01-27T07:19:54;48501.47;;;-141.90;58.39
5298;BME280;14738;42.668;23.250;2024-01-27T07:22:19;48576.91;;;-141.90;57.63
5298;BME280;14738;42.668;23.250;2024-01-27T07:24:45;48485.59;;;-141.90;57.56
5298;BME280;14738;42.668;23.250;2024-01-27T07:27:12;48537.22;;;-141.90;57.24
5298;BME280;14738;42.668;23.250;2024-01-27T07:29:38;48531.25;;;-141.90;57.06
5298;BME280;14738;42.668;23.250;2024-01-27T07:32:04;48549.13;;;-141.90;56.70
5298;BME280;14738;42.668;23.250;2024-01-27T07:34:29;48533.25;;;-141.90;56.74
5298;BME280;14738;42.668;23.250;2024-01-27T07:36:55;48529.28;;;-141.90;56.48
5298;BME280;14738;42.668;23.250;2024-01-27T07:39:20;48517.34;;;-141.90;56.33
5298;BME280;14738;42.668;23.250;2024-01-27T07:41:46;48559.06;;;-141.90;55.70
5298;BME280;14738;42.668;23.250;2024-01-27T07:44:14;48543.16;;;-141.90;55.35
5298;BME280;14738;42.668;23.250;2024-01-27T07:46:40;48537.22;;;-141.90;55.16
5298;BME280;14738;42.668;23.250;2024-01-27T07:49:06;48513.38;;;-141.90;54.64
5298;BME280;14738;42.668;23.250;2024-01-27T07:51:32;48557.06;;;-141.90;55.01
5298;BME280;14738;42.668;23.250;2024-01-27T07:53:58;48551.09;;;-141.90;55.92
5298;BME280;14738;42.668;23.250;2024-01-27T07:56:24;48543.16;;;-141.90;56.40
5298;BME280;14738;42.668;23.250;2024-01-27T07:58:49;48545.16;;;-141.90;55.33
5298;BME280;14738;42.668;23.250;2024-01-27T08:01:15;48513.38;;;-141.90;55.20
5298;BME280;14738;42.668;23.250;2024-01-27T08:03:41;48555.09;;;-141.90;55.18
5298;BME280;14738;42.668;23.250;2024-01-27T08:06:10;48513.38;;;-141.90;54.79
5298;BME280;14738;42.668;23.250;2024-01-27T08:08:36;48515.38;;;-141.90;55.43
5298;BME280;14738;42.668;23.250;2024-01-27T08:11:02;48521.34;;;-141.90;54.74
5298;BME280;14738;42.668;23.250;2024-01-27T08:13:27;48553.09;;;-141.90;54.43
5298;BME280;14738;42.668;23.250;2024-01-27T08:15:52;48525.31;;;-141.90;54.26
5298;BME280;14738;42.668;23.250;2024-01-27T08:18:18;48495.53;;;-141.90;53.90
5298;BME280;14738;42.668;23.250;2024-01-27T08:20:43;48517.34;;;-141.90;53.15
5298;BME280;14738;42.668;23.250;2024-01-27T08:23:08;48547.13;;;-141.90;53.10
5298;BME280;14738;42.668;23.250;2024-01-27T08:25:34;48523.31;;;-141.90;52.81
5298;BME280;14738;42.668;23.250;2024-01-27T08:27:59;48521.34;;;-141.90;52.36
5298;BME280;14738;42.668;23.250;2024-01-27T08:30:25;48497.50;;;-141.90;52.29
5298;BME280;14738;42.668;23.250;2024-01-27T08:33:06;48549.13;;;-141.90;51.58
5298;BME280;14738;42.668;23.250;2024-01-27T08:35:31;48519.34;;;-141.90;51.09
5298;BME280;14738;42.668;23.250;2024-01-27T08:37:56;48531.25;;;-141.90;51.60
5298;BME280;14738;42.668;23.250;2024-01-27T08:40:22;48543.16;;;-141.90;51.87
5298;BME280;14738;42.668;23.250;2024-01-27T08:42:47;48541.19;;;-141.90;51.83
5298;BME280;14738;42.668;23.250;2024-01-27T08:45:12;48509.41;;;-141.90;51.40
5298;BME280;14738;42.668;23.250;2024-01-27T08:47:38;48553.09;;;-141.90;51.06
5298;BME280;14738;42.668;23.250;2024-01-27T08:50:04;48493.53;;;-141.90;50.91
5298;BME280;14738;42.668;23.250;2024-01-27T08:52:31;48493.53;;;-141.90;50.48
5298;BME280;14738;42.668;23.250;2024-01-27T08:54:56;48509.41;;;-141.90;50.23
5298;BME280;14738;42.668;23.250;2024-01-27T08:57:21;48533.25;;;-141.90;50.86
5298;BME280;14738;42.668;23.250;2024-01-27T08:59:47;48517.34;;;-141.90;49.55
5298;BME280;14738;42.668;23.250;2024-01-27T09:02:12;48509.41;;;-141.90;49.36
5298;BME280;14738;42.668;23.250;2024-01-27T09:04:38;48507.44;;;-141.90;48.50
5298;BME280;14738;42.668;23.250;2024-01-27T09:07:03;48493.53;;;-141.90;49.31
5298;BME280;14738;42.668;23.250;2024-01-27T09:09:29;48497.50;;;-141.90;48.70
5298;BME280;14738;42.668;23.250;2024-01-27T09:11:54;48521.34;;;-141.90;48.85
5298;BME280;14738;42.668;23.250;2024-01-27T09:14:19;48499.50;;;-141.90;48.92
5298;BME280;14738;42.668;23.250;2024-01-27T09:16:45;48493.53;;;-141.90;49.42
5298;BME280;14738;42.668;23.250;2024-01-27T09:19:11;48509.41;;;-141.90;49.85
5298;BME280;14738;42.668;23.250;2024-01-27T09:21:37;48537.22;;;-141.90;50.25
5298;BME280;14738;42.668;23.250;2024-01-27T09:24:02;48533.25;;;-141.90;50.87
5298;BME280;14738;42.668;23.250;2024-01-27T09:26:28;48497.50;;;-141.90;50.19
5298;BME280;14738;42.668;23.250;2024-01-27T09:28:54;48509.41;;;-141.90;49.90
5298;BME280;14738;42.668;23.250;2024-01-27T09:31:22;48501.47;;;-141.90;48.82
5298;BME280;14738;42.668;23.250;2024-01-27T09:33:51;48501.47;;;-141.90;48.54
5298;BME280;14738;42.668;23.250;2024-01-27T09:36:20;48499.50;;;-141.90;49.21
5298;BME280;14738;42.668;23.250;2024-01-27T09:38:48;48521.34;;;-141.90;49.51
5298;BME280;14738;42.668;23.250;2024-01-27T09:41:14;48523.31;;;-141.90;49.70
5298;BME280;14738;42.668;23.250;2024-01-27T09:43:44;48497.50;;;-141.90;49.12
5298;BME280;14738;42.668;23.250;2024-01-27T09:46:17;48501.47;;;-141.90;49.85
5298;BME280;14738;42.668;23.250;2024-01-27T09:48:43;48497.50;;;-141.90;50.13
5298;BME280;14738;42.668;23.250;2024-01-27T09:51:09;48517.34;;;-141.90;50.00
5298;BME280;14738;42.668;23.250;2024-01-27T09:53:37;48537.22;;;-141.90;50.94
5298;BME280;14738;42.668;23.250;2024-01-27T09:56:04;48531.25;;;-141.90;51.62
5298;BME280;14738;42.668;23.250;2024-01-27T09:58:31;48513.38;;;-141.90;51.38
5298;BME280;14738;42.668;23.250;2024-01-27T10:00:59;48517.34;;;-141.90;51.85
5298;BME280;14738;42.668;23.250;2024-01-27T10:03:25;48513.38;;;-141.90;51.99
5298;BME280;14738;42.668;23.250;2024-01-27T10:05:53;48489.56;;;-141.90;52.39
5298;BME280;14738;42.668;23.250;2024-01-27T10:08:20;48515.38;;;-141.90;52.30
5298;BME280;14738;42.668;23.250;2024-01-27T10:10:46;48523.31;;;-141.90;52.45
5298;BME280;14738;42.668;23.250;2024-01-27T10:13:14;48517.34;;;-141.90;51.85
5298;BME280;14738;42.668;23.250;2024-01-27T10:15:41;48533.25;;;-141.90;52.14
5298;BME280;14738;42.668;23.250;2024-01-27T10:18:07;48521.34;;;-141.90;52.55
5298;BME280;14738;42.668;23.250;2024-01-27T10:20:33;48549.13;;;-141.90;52.64
5298;BME280;14738;42.668;23.250;2024-01-27T10:23:09;48541.19;;;-141.90;52.64
5298;BME280;14738;42.668;23.250;2024-01-27T10:25:37;48553.09;;;-141.90;53.15
5298;BME280;14738;42.668;23.250;2024-01-27T10:28:04;48513.38;;;-141.90;53.05
5298;BME280;14738;42.668;23.250;2024-01-27T10:30:30;48545.16;;;-141.90;52.98
5298;BME280;14738;42.668;23.250;2024-01-27T10:32:56;48537.22;;;-141.90;53.31
5298;BME280;14738;42.668;23.250;2024-01-27T10:35:25;48521.34;;;-141.90;53.09
5298;BME280;14738;42.668;23.250;2024-01-27T10:37:54;48557.06;;;-141.90;53.16
5298;BME280;14738;42.668;23.250;2024-01-27T10:40:20;48565.00;;;-141.90;53.54
5298;BME280;14738;42.668;23.250;2024-01-27T10:42:45;48537.22;;;-141.90;53.48
5298;BME280;14738;42.668;23.250;2024-01-27T10:45:12;48557.06;;;-141.90;53.09
5298;BME280;14738;42.668;23.250;2024-01-27T10:47:38;48533.25;;;-141.90;52.63
5298;BME280;14738;42.668;23.250;2024-01-27T10:50:08;48549.13;;;-141.90;51.77
5298;BME280;14738;42.668;23.250;2024-01-27T10:52:39;48487.56;;;-141.90;52.18
5298;BME280;14738;42.668;23.250;2024-01-27T10:55:09;48565.00;;;-141.90;52.63
5298;BME280;14738;42.668;23.250;2024-01-27T10:57:37;48521.34;;;-141.90;52.31
5298;BME280;14738;42.668;23.250;2024-01-27T11:00:05;48525.31;;;-141.90;52.38
5298;BME280;14738;42.668;23.250;2024-01-27T11:02:34;48493.53;;;-141.90;52.68
5298;BME280;14738;42.668;23.250;2024-01-27T11:05:03;48519.34;;;-141.90;52.38
5298;BME280;14738;42.668;23.250;2024-01-27T11:07:33;48567.00;;;-141.90;52.66
5298;BME280;14738;42.668;23.250;2024-01-27T11:09:59;48541.19;;;-141.90;52.54
5298;BME280;14738;42.668;23.250;2024-01-27T11:12:25;48519.34;;;-141.90;52.78
5298;BME280;14738;42.668;23.250;2024-01-27T11:14:51;48535.22;;;-141.90;52.75
5298;BME280;14738;42.668;23.250;2024-01-27T11:17:17;48525.31;;;-141.90;52.26
5298;BME280;14738;42.668;23.250;2024-01-27T11:19:45;48533.25;;;-141.90;52.68
5298;BME280;14738;42.668;23.250;2024-01-27T11:22:27;48545.16;;;-141.90;52.52
5298;BME280;14738;42.668;23.250;2024-01-27T11:25:15;48531.25;;;-141.90;52.20
5298;BME280;14738;42.668;23.250;2024-01-27T11:27:40;48517.34;;;-141.90;52.60
5298;BME280;14738;42.668;23.250;2024-01-27T11:30:12;48543.16;;;-141.90;53.27
5298;BME280;14738;42.668;23.250;2024-01-27T11:32:49;48533.25;;;-141.90;52.92
5298;BME280;14738;42.668;23.250;2024-01-27T11:35:17;48545.16;;;-141.90;52.81
5298;BME280;14738;42.668;23.250;2024-01-27T11:37:43;48527.28;;;-141.90;52.89
5298;BME280;14738;42.668;23.250;2024-01-27T11:40:08;48527.28;;;-141.90;53.52
5298;BME280;14738;42.668;23.250;2024-01-27T11:42:34;48519.34;;;-141.90;52.55
5298;BME280;14738;42.668;23.250;2024-01-27T11:45:00;48525.31;;;-141.90;52.42
5298;BME280;14738;42.668;23.250;2024-01-27T11:47:26;48509.41;;;-141.90;51.81
5298;BME280;14738;42.668;23.250;2024-01-27T11:49:53;48549.13;;;-141.90;51.83
5298;BME280;14738;42.668;23.250;2024-01-27T11:52:19;48533.25;;;-141.90;51.60
5298;BME280;14738;42.668;23.250;2024-01-27T11:54:45;48531.25;;;-141.90;51.45
5298;BME280;14738;42.668;23.250;2024-01-27T11:57:10;48515.38;;;-141.90;50.98
5298;BME280;14738;42.668;23.250;2024-01-27T11:59:35;48515.38;;;-141.90;51.09
5298;BME280;14738;42.668;23.250;2024-01-27T12:02:02;48541.19;;;-141.90;51.33
5298;BME280;14738;42.668;23.250;2024-01-27T12:04:28;48501.47;;;-141.90;50.59
5298;BME280;14738;42.668;23.250;2024-01-27T12:06:54;48541.19;;;-141.90;50.09
5298;BME280;14738;42.668;23.250;2024-01-27T12:09:19;48537.22;;;-141.90;49.89
5298;BME280;14738;42.668;23.250;2024-01-27T12:11:45;48527.28;;;-141.90;49.90
5298;BME280;14738;42.668;23.250;2024-01-27T12:14:11;48541.19;;;-141.90;49.01
5298;BME280;14738;42.668;23.250;2024-01-27T12:16:37;48541.19;;;-141.90;49.09
5298;BME280;14738;42.668;23.250;2024-01-27T12:19:03;48523.31;;;-141.90;48.54
5298;BME280;14738;42.668;23.250;2024-01-27T12:21:29;48517.34;;;-141.90;47.87
5298;BME280;14738;42.668;23.250;2024-01-27T12:24:01;48525.31;;;-141.90;47.22
5298;BME280;14738;42.668;23.250;2024-01-27T12:26:29;48537.22;;;-141.90;47.09
5298;BME280;14738;42.668;23.250;2024-01-27T12:28:55;48533.25;;;-141.90;46.92
5298;BME280;14738;42.668;23.250;2024-01-27T12:31:22;48517.34;;;-141.90;46.99
5298;BME280;14738;42.668;23.250;2024-01-27T12:33:55;48529.28;;;-141.90;46.87
5298;BME280;14738;42.668;23.250;2024-01-27T12:36:22;48509.41;;;-141.90;46.75
5298;BME280;14738;42.668;23.250;2024-01-27T12:38:59;48527.28;;;-141.90;46.63
5298;BME280;14738;42.668;23.250;2024-01-27T12:41:26;48507.44;;;-141.90;46.67
5298;BME280;14738;42.668;23.250;2024-01-27T12:43:52;48547.13;;;-141.90;46.89
5298;BME280;14738;42.668;23.250;2024-01-27T12:46:18;48503.47;;;-141.90;47.19
5298;BME280;14738;42.668;23.250;2024-01-27T12:48:45;48529.28;;;-141.90;47.53
5298;BME280;14738;42.668;23.250;2024-01-27T12:51:10;48531.25;;;-141.90;47.14